sensor_id;sensor_type;location;lat;lon;timestamp;noise_LAeq;noise_LA_min;noise_LA_max;noise_LA01;noise_LA95
72028;Laerm;59781;52.090;5.030;2023-08-21T00:00:07;37.30;35.23;43.12;;
72028;Laerm;59781;52.090;5.030;2023-08-21T00:02:33;37.58;35.07;42.94;;
72028;Laerm;59781;52.090;5.030;2023-08-21T00:04:58;37.49;35.53;42.20;;
72028;Laerm;59781;52.090;5.030;2023-08-21T00:07:24;37.53;35.50;44.43;;
72028;Laerm;59781;52.090;5.030;2023-08-21T00:09:50;41.02;35.49;50.83;;
72028;Laerm;59781;52.090;5.030;2023-08-21T00:12:15;37.96;35.92;43.90;;
72028;Laerm;59781;52.090;5.030;2023-08-21T00:14:41;37.96;36.14;45.01;;
72028;Laerm;59781;52.090;5.030;2023-08-21T00:17:07;37.73;35.84;39.20;;
72028;Laerm;59781;52.090;5.030;2023-08-21T00:19:33;37.67;35.79;39.14;;
72028;Laerm;59781;52.090;5.030;2023-08-21T00:22:00;38.04;36.06;41.04;;
72028;Laerm;59781;52.090;5.030;2023-08-21T00:24:25;37.85;36.07;40.25;;
72028;Laerm;59781;52.090;5.030;2023-08-21T00:26:51;37.73;36.23;39.63;;
72028;Laerm;59781;52.090;5.030;2023-08-21T00:29:17;37.97;36.20;43.09;;
72028;Laerm;59781;52.090;5.030;2023-08-21T00:31:43;38.19;36.05;43.67;;
72028;Laerm;59781;52.090;5.030;2023-08-21T00:34:08;37.77;36.17;41.07;;
72028;Laerm;59781;52.090;5.030;2023-08-21T00:36:34;37.82;36.12;39.32;;
72028;Laerm;59781;52.090;5.030;2023-08-21T00:39:00;37.85;36.06;39.41;;
72028;Laerm;59781;52.090;5.030;2023-08-21T00:41:26;37.87;36.14;39.33;;
72028;Laerm;59781;52.090;5.030;2023-08-21T00:43:53;37.92;36.13;40.02;;
72028;Laerm;59781;52.090;5.030;2023-08-21T00:46:19;38.35;36.34;41.60;;
72028;Laerm;59781;52.090;5.030;2023-08-21T00:48:45;38.38;36.07;43.81;;
72028;Laerm;59781;52.090;5.030;2023-08-21T00:51:15;38.02;35.83;41.87;;
72028;Laerm;59781;52.090;5.030;2023-08-21T00:53:42;37.89;36.01;40.10;;
72028;Laerm;59781;52.090;5.030;2023-08-21T00:56:09;38.30;35.90;43.33;;
72028;Laerm;59781;52.090;5.030;2023-08-21T00:58:35;37.88;36.03;41.64;;
72028;Laerm;59781;52.090;5.030;2023-08-21T01:01:01;38.78;36.22;45.71;;
72028;Laerm;59781;52.090;5.030;2023-08-21T01:03:29;37.79;36.20;39.82;;
72028;Laerm;59781;52.090;5.030;2023-08-21T01:05:55;37.76;36.02;39.32;;
72028;Laerm;59781;52.090;5.030;2023-08-21T01:08:28;37.71;36.03;39.72;;
72028;Laerm;59781;52.090;5.030;2023-08-21T01:11:19;37.78;35.87;39.41;;
72028;Laerm;59781;52.090;5.030;2023-08-21T01:17:00;37.75;35.92;41.99;;
72028;Laerm;59781;52.090;5.030;2023-08-21T01:19:38;37.88;36.02;39.68;;
72028;Laerm;59781;52.090;5.030;2023-08-21T01:22:06;38.11;35.94;41.29;;
72028;Laerm;59781;52.090;5.030;2023-08-21T01:24:31;38.25;36.41;40.48;;
72028;Laerm;59781;52.090;5.030;2023-08-21T01:26:59;37.92;36.10;39.67;;
72028;Laerm;59781;52.090;5.030;2023-08-21T01:29:27;37.55;35.89;39.09;;
72028;Laerm;59781;52.090;5.030;2023-08-21T01:32:20;37.48;35.80;41.31;;
72028;Laerm;59781;52.090;5.030;2023-08-21T01:34:50;37.49;35.85;39.33;;
72028;Laerm;59781;52.090;5.030;2023-08-21T01:37:17;37.50;35.77;40.18;;
72028;Laerm;59781;52.090;5.030;2023-08-21T01:39:44;37.13;35.37;41.36;;
72028;Laerm;59781;52.090;5.030;2023-08-21T01:42:09;37.52;35.32;43.55;;
72028;Laerm;59781;52.090;5.030;2023-08-21T01:44:35;37.20;35.52;38.73;;
72028;Laerm;59781;52.090;5.030;2023-08-21T01:47:02;37.28;35.46;44.08;;
72028;Laerm;59781;52.090;5.030;2023-08-21T01:49:28;37.85;35.30;44.70;;
72028;Laerm;59781;52.090;5.030;2023-08-21T01:51:53;36.98;35.14;40.07;;
72028;Laerm;59781;52.090;5.030;2023-08-21T01:54:19;36.71;34.97;41.70;;
72028;Laerm;59781;52.090;5.030;2023-08-21T01:56:45;36.78;34.76;38.29;;
72028;Laerm;59781;52.090;5.030;2023-08-21T01:59:10;36.94;35.16;40.69;;
72028;Laerm;59781;52.090;5.030;2023-08-21T02:01:36;37.41;35.24;43.10;;
72028;Laerm;59781;52.090;5.030;2023-08-21T02:04:02;36.92;35.15;38.36;;
72028;Laerm;59781;52.090;5.030;2023-08-21T02:06:28;36.98;35.22;39.88;;
72028;Laerm;59781;52.090;5.030;2023-08-21T02:08:53;37.22;35.43;41.31;;
72028;Laerm;59781;52.090;5.030;2023-08-21T02:11:19;40.35;34.70;51.17;;
72028;Laerm;59781;52.090;5.030;2023-08-21T02:13:45;37.11;35.41;40.93;;
72028;Laerm;59781;52.090;5.030;2023-08-21T02:16:10;37.22;35.45;42.11;;
72028;Laerm;59781;52.090;5.030;2023-08-21T02:18:36;37.27;35.61;39.14;;
72028;Laerm;59781;52.090;5.030;2023-08-21T02:21:02;37.33;35.36;41.97;;
72028;Laerm;59781;52.090;5.030;2023-08-21T02:23:28;37.27;35.21;39.36;;
72028;Laerm;59781;52.090;5.030;2023-08-21T02:25:55;38.06;35.84;43.68;;
72028;Laerm;59781;52.090;5.030;2023-08-21T02:28:20;37.94;35.66;45.79;;
72028;Laerm;59781;52.090;5.030;2023-08-21T02:30:47;37.42;35.50;41.41;;
72028;Laerm;59781;52.090;5.030;2023-08-21T02:33:13;37.23;35.61;38.79;;
72028;Laerm;59781;52.090;5.030;2023-08-21T02:35:39;37.51;35.45;42.94;;
72028;Laerm;59781;52.090;5.030;2023-08-21T02:38:05;37.52;35.19;41.67;;
72028;Laerm;59781;52.090;5.030;2023-08-21T02:40:34;37.57;35.18;42.60;;
72028;Laerm;59781;52.090;5.030;2023-08-21T02:43:00;37.45;35.36;41.56;;
72028;Laerm;59781;52.090;5.030;2023-08-21T02:45:26;37.38;35.48;40.64;;
72028;Laerm;59781;52.090;5.030;2023-08-21T02:47:51;37.45;35.55;39.81;;
72028;Laerm;59781;52.090;5.030;2023-08-21T02:50:17;37.49;35.28;39.66;;
72028;Laerm;59781;52.090;5.030;2023-08-21T02:52:43;37.68;35.85;39.57;;
72028;Laerm;59781;52.090;5.030;2023-08-21T02:55:08;37.29;35.79;38.95;;
72028;Laerm;59781;52.090;5.030;2023-08-21T02:57:34;37.34;35.46;40.58;;
72028;Laerm;59781;52.090;5.030;2023-08-21T03:00:00;38.21;35.66;52.72;;
72028;Laerm;59781;52.090;5.030;2023-08-21T03:02:26;37.68;35.60;43.37;;
72028;Laerm;59781;52.090;5.030;2023-08-21T03:04:52;37.55;35.61;41.76;;
72028;Laerm;59781;52.090;5.030;2023-08-21T03:07:18;37.46;35.64;40.21;;
72028;Laerm;59781;52.090;5.030;2023-08-21T03:09:46;37.40;35.48;38.93;;
72028;Laerm;59781;52.090;5.030;2023-08-21T03:12:12;37.50;35.59;39.30;;
72028;Laerm;59781;52.090;5.030;2023-08-21T03:14:38;37.80;36.17;39.38;;
72028;Laerm;59781;52.090;5.030;2023-08-21T03:17:04;38.41;36.40;43.36;;
72028;Laerm;59781;52.090;5.030;2023-08-21T03:19:30;38.43;36.38;43.18;;
72028;Laerm;59781;52.090;5.030;2023-08-21T03:21:56;38.59;36.67;41.27;;
72028;Laerm;59781;52.090;5.030;2023-08-21T03:24:22;38.63;36.48;45.55;;
72028;Laerm;59781;52.090;5.030;2023-08-21T03:26:48;39.20;36.81;47.38;;
72028;Laerm;59781;52.090;5.030;2023-08-21T03:29:13;38.46;36.67;42.22;;
72028;Laerm;59781;52.090;5.030;2023-08-21T03:31:41;38.80;36.62;45.78;;
72028;Laerm;59781;52.090;5.030;2023-08-21T03:34:07;38.62;36.46;40.52;;
72028;Laerm;59781;52.090;5.030;2023-08-21T03:36:34;38.69;36.89;42.22;;
72028;Laerm;59781;52.090;5.030;2023-08-21T03:39:03;38.27;35.94;42.93;;
72028;Laerm;59781;52.090;5.030;2023-08-21T03:41:32;38.33;36.21;41.84;;
72028;Laerm;59781;52.090;5.030;2023-08-21T03:43:59;38.35;36.32;42.29;;
72028;Laerm;59781;52.090;5.030;2023-08-21T03:46:25;38.92;36.75;42.87;;
72028;Laerm;59781;52.090;5.030;2023-08-21T03:48:51;38.58;36.54;41.16;;
72028;Laerm;59781;52.090;5.030;2023-08-21T03:51:17;38.90;36.81;43.53;;
72028;Laerm;59781;52.090;5.030;2023-08-21T03:53:42;38.89;37.11;41.09;;
72028;Laerm;59781;52.090;5.030;2023-08-21T03:56:08;38.66;36.79;40.66;;
72028;Laerm;59781;52.090;5.030;2023-08-21T03:58:34;38.95;37.05;41.80;;
72028;Laerm;59781;52.090;5.030;2023-08-21T04:01:00;39.75;37.41;42.79;;
72028;Laerm;59781;52.090;5.030;2023-08-21T04:03:26;39.55;37.34;42.44;;
72028;Laerm;59781;52.090;5.030;2023-08-21T04:05:54;39.51;37.34;45.64;;
72028;Laerm;59781;52.090;5.030;2023-08-21T04:08:20;41.83;37.29;56.25;;
72028;Laerm;59781;52.090;5.030;2023-08-21T04:10:45;42.18;36.60;55.34;;
72028;Laerm;59781;52.090;5.030;2023-08-21T04:13:11;38.77;36.65;54.34;;
72028;Laerm;59781;52.090;5.030;2023-08-21T04:15:37;39.63;36.79;53.61;;
72028;Laerm;59781;52.090;5.030;2023-08-21T04:18:06;40.10;37.05;50.35;;
72028;Laerm;59781;52.090;5.030;2023-08-21T04:20:32;40.15;36.87;63.40;;
72028;Laerm;59781;52.090;5.030;2023-08-21T04:22:58;41.92;37.08;65.22;;
72028;Laerm;59781;52.090;5.030;2023-08-21T04:25:23;40.87;36.99;65.30;;
72028;Laerm;59781;52.090;5.030;2023-08-21T04:27:49;39.62;36.36;44.31;;
72028;Laerm;59781;52.090;5.030;2023-08-21T04:30:15;39.65;37.40;42.85;;
72028;Laerm;59781;52.090;5.030;2023-08-21T04:32:40;40.42;37.99;48.53;;
72028;Laerm;59781;52.090;5.030;2023-08-21T04:35:08;40.10;37.62;50.28;;
72028;Laerm;59781;52.090;5.030;2023-08-21T04:37:34;40.51;37.97;44.30;;
72028;Laerm;59781;52.090;5.030;2023-08-21T04:40:01;40.89;38.57;44.06;;
72028;Laerm;59781;52.090;5.030;2023-08-21T04:42:27;41.54;38.99;46.56;;
72028;Laerm;59781;52.090;5.030;2023-08-21T04:44:53;40.53;38.12;48.02;;
72028;Laerm;59781;52.090;5.030;2023-08-21T04:47:25;40.24;37.87;46.59;;
72028;Laerm;59781;52.090;5.030;2023-08-21T04:49:59;40.65;37.88;46.01;;
72028;Laerm;59781;52.090;5.030;2023-08-21T04:52:26;41.23;37.80;51.03;;
72028;Laerm;59781;52.090;5.030;2023-08-21T04:54:54;39.47;37.06;44.68;;
72028;Laerm;59781;52.090;5.030;2023-08-21T04:57:20;40.44;37.35;57.35;;
72028;Laerm;59781;52.090;5.030;2023-08-21T04:59:48;41.02;37.25;58.43;;
72028;Laerm;59781;52.090;5.030;2023-08-21T05:02:14;40.28;37.52;48.66;;
72028;Laerm;59781;52.090;5.030;2023-08-21T05:04:40;40.95;37.62;50.97;;
72028;Laerm;59781;52.090;5.030;2023-08-21T05:07:06;41.02;38.23;44.72;;
72028;Laerm;59781;52.090;5.030;2023-08-21T05:09:32;40.50;37.48;48.24;;
72028;Laerm;59781;52.090;5.030;2023-08-21T05:11:59;40.02;37.00;55.13;;
72028;Laerm;59781;52.090;5.030;2023-08-21T05:14:25;40.83;37.31;51.44;;
72028;Laerm;59781;52.090;5.030;2023-08-21T05:16:50;42.33;38.26;53.87;;
72028;Laerm;59781;52.090;5.030;2023-08-21T05:19:17;44.75;38.08;57.07;;
72028;Laerm;59781;52.090;5.030;2023-08-21T05:21:45;45.25;37.83;63.17;;
72028;Laerm;59781;52.090;5.030;2023-08-21T05:24:11;43.14;38.22;53.73;;
72028;Laerm;59781;52.090;5.030;2023-08-21T05:26:40;42.37;38.85;59.87;;
72028;Laerm;59781;52.090;5.030;2023-08-21T05:29:05;41.43;38.02;53.92;;
72028;Laerm;59781;52.090;5.030;2023-08-21T05:31:31;40.80;38.50;45.74;;
72028;Laerm;59781;52.090;5.030;2023-08-21T05:33:58;42.32;38.75;58.01;;
72028;Laerm;59781;52.090;5.030;2023-08-21T05:36:23;42.75;38.18;62.44;;
72028;Laerm;59781;52.090;5.030;2023-08-21T05:38:50;42.56;38.54;51.23;;
72028;Laerm;59781;52.090;5.030;2023-08-21T05:41:17;41.86;38.61;47.85;;
72028;Laerm;59781;52.090;5.030;2023-08-21T05:43:43;41.09;38.20;56.71;;
72028;Laerm;59781;52.090;5.030;2023-08-21T05:46:11;41.62;38.39;59.24;;
72028;Laerm;59781;52.090;5.030;2023-08-21T05:48:37;44.29;39.22;54.61;;
72028;Laerm;59781;52.090;5.030;2023-08-21T05:51:03;43.26;39.12;68.72;;
72028;Laerm;59781;52.090;5.030;2023-08-21T05:53:31;42.33;38.76;51.73;;
72028;Laerm;59781;52.090;5.030;2023-08-21T05:55:56;41.91;38.73;60.53;;
72028;Laerm;59781;52.090;5.030;2023-08-21T05:58:22;42.21;38.48;60.45;;
72028;Laerm;59781;52.090;5.030;2023-08-21T06:00:48;42.52;38.89;51.97;;
72028;Laerm;59781;52.090;5.030;2023-08-21T06:03:14;45.00;37.98;61.53;;
72028;Laerm;59781;52.090;5.030;2023-08-21T06:05:51;42.04;37.67;64.38;;
72028;Laerm;59781;52.090;5.030;2023-08-21T06:08:17;42.73;38.16;65.60;;
72028;Laerm;59781;52.090;5.030;2023-08-21T06:10:44;44.11;37.80;65.76;;
72028;Laerm;59781;52.090;5.030;2023-08-21T06:13:09;41.97;38.19;65.45;;
72028;Laerm;59781;52.090;5.030;2023-08-21T06:15:35;41.34;38.26;45.91;;
72028;Laerm;59781;52.090;5.030;2023-08-21T06:18:01;41.04;37.31;45.69;;
72028;Laerm;59781;52.090;5.030;2023-08-21T06:20:27;41.14;37.57;55.59;;
72028;Laerm;59781;52.090;5.030;2023-08-21T06:22:52;42.46;37.27;62.25;;
72028;Laerm;59781;52.090;5.030;2023-08-21T06:25:18;42.04;39.06;54.67;;
72028;Laerm;59781;52.090;5.030;2023-08-21T06:27:45;40.88;37.77;58.22;;
72028;Laerm;59781;52.090;5.030;2023-08-21T06:30:11;41.52;38.05;59.03;;
72028;Laerm;59781;52.090;5.030;2023-08-21T06:32:36;42.45;38.87;48.09;;
72028;Laerm;59781;52.090;5.030;2023-08-21T06:35:02;43.80;40.82;56.56;;
72028;Laerm;59781;52.090;5.030;2023-08-21T06:37:28;44.51;41.20;59.08;;
72028;Laerm;59781;52.090;5.030;2023-08-21T06:39:54;44.79;41.47;55.97;;
72028;Laerm;59781;52.090;5.030;2023-08-21T06:42:19;45.47;41.46;61.48;;
72028;Laerm;59781;52.090;5.030;2023-08-21T06:44:49;45.40;41.04;53.56;;
72028;Laerm;59781;52.090;5.030;2023-08-21T06:47:14;44.43;40.16;60.81;;
72028;Laerm;59781;52.090;5.030;2023-08-21T06:49:40;43.44;40.22;53.18;;
72028;Laerm;59781;52.090;5.030;2023-08-21T06:52:06;42.65;39.31;57.63;;
72028;Laerm;59781;52.090;5.030;2023-08-21T06:54:31;43.08;39.16;62.16;;
72028;Laerm;59781;52.090;5.030;2023-08-21T06:56:57;48.58;40.08;78.67;;
72028;Laerm;59781;52.090;5.030;2023-08-21T06:59:23;43.80;39.33;60.76;;
72028;Laerm;59781;52.090;5.030;2023-08-21T07:01:49;43.66;39.67;63.26;;
72028;Laerm;59781;52.090;5.030;2023-08-21T07:04:17;43.63;40.59;54.20;;
72028;Laerm;59781;52.090;5.030;2023-08-21T07:06:42;44.50;39.61;67.99;;
72028;Laerm;59781;52.090;5.030;2023-08-21T07:09:08;43.76;39.63;56.77;;
72028;Laerm;59781;52.090;5.030;2023-08-21T07:11:34;43.47;38.89;65.09;;
72028;Laerm;59781;52.090;5.030;2023-08-21T07:14:00;44.09;40.77;59.40;;
72028;Laerm;59781;52.090;5.030;2023-08-21T07:16:25;44.87;40.17;69.08;;
72028;Laerm;59781;52.090;5.030;2023-08-21T07:18:52;43.01;40.04;50.66;;
72028;Laerm;59781;52.090;5.030;2023-08-21T07:21:17;43.57;39.11;68.64;;
72028;Laerm;59781;52.090;5.030;2023-08-21T07:23:43;42.26;38.82;59.10;;
72028;Laerm;59781;52.090;5.030;2023-08-21T07:26:09;43.18;38.28;58.36;;
72028;Laerm;59781;52.090;5.030;2023-08-21T07:28:34;42.73;37.42;56.27;;
72028;Laerm;59781;52.090;5.030;2023-08-21T07:31:01;40.86;37.71;53.65;;
72028;Laerm;59781;52.090;5.030;2023-08-21T07:33:27;41.07;37.81;67.89;;
72028;Laerm;59781;52.090;5.030;2023-08-21T07:36:04;40.67;37.43;49.07;;
72028;Laerm;59781;52.090;5.030;2023-08-21T07:38:31;40.16;36.95;51.54;;
72028;Laerm;59781;52.090;5.030;2023-08-21T07:41:09;40.00;36.76;54.96;;
72028;Laerm;59781;52.090;5.030;2023-08-21T07:43:40;41.07;36.87;53.76;;
72028;Laerm;59781;52.090;5.030;2023-08-21T07:46:10;40.39;36.38;55.19;;
72028;Laerm;59781;52.090;5.030;2023-08-21T07:48:39;40.93;36.62;52.92;;
72028;Laerm;59781;52.090;5.030;2023-08-21T07:51:05;39.57;36.10;53.04;;
72028;Laerm;59781;52.090;5.030;2023-08-21T07:53:30;40.00;36.49;52.58;;
72028;Laerm;59781;52.090;5.030;2023-08-21T07:55:58;39.23;35.99;44.02;;
72028;Laerm;59781;52.090;5.030;2023-08-21T07:58:24;40.01;36.77;47.50;;
72028;Laerm;59781;52.090;5.030;2023-08-21T08:00:49;39.48;35.88;46.27;;
72028;Laerm;59781;52.090;5.030;2023-08-21T08:03:15;39.69;35.55;64.36;;
72028;Laerm;59781;52.090;5.030;2023-08-21T08:05:41;40.93;36.11;59.66;;
72028;Laerm;59781;52.090;5.030;2023-08-21T08:08:10;42.63;36.60;52.29;;
72028;Laerm;59781;52.090;5.030;2023-08-21T08:10:40;42.58;36.30;54.20;;
72028;Laerm;59781;52.090;5.030;2023-08-21T08:13:07;39.34;36.33;43.35;;
72028;Laerm;59781;52.090;5.030;2023-08-21T08:15:34;39.40;35.78;46.30;;
72028;Laerm;59781;52.090;5.030;2023-08-21T08:18:02;40.20;35.89;50.76;;
72028;Laerm;59781;52.090;5.030;2023-08-21T08:20:28;39.90;35.97;48.88;;
72028;Laerm;59781;52.090;5.030;2023-08-21T08:22:54;40.11;36.06;50.95;;
72028;Laerm;59781;52.090;5.030;2023-08-21T08:25:19;40.79;36.30;54.40;;
72028;Laerm;59781;52.090;5.030;2023-08-21T08:27:45;39.30;35.94;52.07;;
72028;Laerm;59781;52.090;5.030;2023-08-21T08:30:11;38.58;35.72;46.87;;
72028;Laerm;59781;52.090;5.030;2023-08-21T08:32:37;38.87;35.70;58.86;;
72028;Laerm;59781;52.090;5.030;2023-08-21T08:35:03;39.09;36.18;44.64;;
72028;Laerm;59781;52.090;5.030;2023-08-21T08:37:29;43.75;36.63;76.33;;
72028;Laerm;59781;52.090;5.030;2023-08-21T08:39:54;39.81;36.66;47.84;;
72028;Laerm;59781;52.090;5.030;2023-08-21T08:42:20;40.58;36.71;59.81;;
72028;Laerm;59781;52.090;5.030;2023-08-21T08:44:47;39.48;36.68;46.27;;
72028;Laerm;59781;52.090;5.030;2023-08-21T08:47:19;39.57;36.98;45.52;;
72028;Laerm;59781;52.090;5.030;2023-08-21T08:49:48;40.91;37.16;49.37;;
72028;Laerm;59781;52.090;5.030;2023-08-21T08:52:16;40.31;36.63;45.37;;
72028;Laerm;59781;52.090;5.030;2023-08-21T08:54:43;39.34;36.71;44.34;;
72028;Laerm;59781;52.090;5.030;2023-08-21T08:57:10;39.73;36.03;51.57;;
72028;Laerm;59781;52.090;5.030;2023-08-21T08:59:36;40.69;37.01;46.31;;
72028;Laerm;59781;52.090;5.030;2023-08-21T09:02:02;40.14;36.19;57.79;;
72028;Laerm;59781;52.090;5.030;2023-08-21T09:04:28;41.32;36.86;58.25;;
72028;Laerm;59781;52.090;5.030;2023-08-21T09:07:07;40.09;36.98;53.92;;
72028;Laerm;59781;52.090;5.030;2023-08-21T09:09:40;41.83;36.21;55.47;;
72028;Laerm;59781;52.090;5.030;2023-08-21T09:12:11;40.94;36.87;54.28;;
72028;Laerm;59781;52.090;5.030;2023-08-21T09:14:40;41.59;36.34;53.42;;
72028;Laerm;59781;52.090;5.030;2023-08-21T09:17:07;39.54;36.39;47.27;;
72028;Laerm;59781;52.090;5.030;2023-08-21T09:19:33;45.07;36.44;59.51;;
72028;Laerm;59781;52.090;5.030;2023-08-21T09:22:06;39.90;36.20;49.90;;
72028;Laerm;59781;52.090;5.030;2023-08-21T09:24:32;41.12;36.62;57.92;;
72028;Laerm;59781;52.090;5.030;2023-08-21T09:26:59;39.66;36.00;45.37;;
72028;Laerm;59781;52.090;5.030;2023-08-21T09:29:37;39.75;36.36;56.78;;
72028;Laerm;59781;52.090;5.030;2023-08-21T09:32:04;40.34;36.11;49.92;;
72028;Laerm;59781;52.090;5.030;2023-08-21T09:34:37;39.80;36.45;56.45;;
72028;Laerm;59781;52.090;5.030;2023-08-21T09:37:09;40.19;36.48;55.37;;
72028;Laerm;59781;52.090;5.030;2023-08-21T09:39:37;56.75;36.37;91.49;;
72028;Laerm;59781;52.090;5.030;2023-08-21T09:42:07;40.07;36.77;48.64;;
72028;Laerm;59781;52.090;5.030;2023-08-21T09:44:40;39.05;35.67;55.23;;
72028;Laerm;59781;52.090;5.030;2023-08-21T09:47:12;41.74;36.84;50.79;;
72028;Laerm;59781;52.090;5.030;2023-08-21T09:49:39;40.49;36.78;45.19;;
72028;Laerm;59781;52.090;5.030;2023-08-21T09:52:07;40.09;36.37;52.40;;
72028;Laerm;59781;52.090;5.030;2023-08-21T09:54:38;40.13;36.42;50.80;;
72028;Laerm;59781;52.090;5.030;2023-08-21T09:57:04;41.69;38.08;50.51;;
72028;Laerm;59781;52.090;5.030;2023-08-21T09:59:31;43.69;37.55;57.45;;
72028;Laerm;59781;52.090;5.030;2023-08-21T10:01:59;39.40;36.64;44.73;;
72028;Laerm;59781;52.090;5.030;2023-08-21T10:04:29;49.87;36.54;72.33;;
72028;Laerm;59781;52.090;5.030;2023-08-21T10:06:57;41.24;36.74;60.37;;
72028;Laerm;59781;52.090;5.030;2023-08-21T10:09:24;42.14;36.87;50.65;;
72028;Laerm;59781;52.090;5.030;2023-08-21T10:11:53;43.06;36.43;53.97;;
72028;Laerm;59781;52.090;5.030;2023-08-21T10:14:22;40.04;36.77;45.47;;
72028;Laerm;59781;52.090;5.030;2023-08-21T10:16:52;40.89;37.34;47.71;;
72028;Laerm;59781;52.090;5.030;2023-08-21T10:19:19;40.15;36.45;46.98;;
72028;Laerm;59781;52.090;5.030;2023-08-21T10:21:48;41.30;37.51;47.60;;
72028;Laerm;59781;52.090;5.030;2023-08-21T10:24:27;42.13;36.62;60.47;;
72028;Laerm;59781;52.090;5.030;2023-08-21T10:26:59;42.08;36.61;54.56;;
72028;Laerm;59781;52.090;5.030;2023-08-21T10:29:26;40.04;36.62;46.94;;
72028;Laerm;59781;52.090;5.030;2023-08-21T10:32:05;40.26;36.63;47.40;;
72028;Laerm;59781;52.090;5.030;2023-08-21T10:34:36;40.70;36.51;59.07;;
72028;Laerm;59781;52.090;5.030;2023-08-21T10:37:08;40.11;36.26;44.93;;
72028;Laerm;59781;52.090;5.030;2023-08-21T10:39:54;38.86;36.23;47.58;;
72028;Laerm;59781;52.090;5.030;2023-08-21T10:42:19;44.90;36.03;72.86;;
72028;Laerm;59781;52.090;5.030;2023-08-21T10:45:11;46.52;36.61;70.95;;
72028;Laerm;59781;52.090;5.030;2023-08-21T10:47:37;43.80;37.03;62.78;;
72028;Laerm;59781;52.090;5.030;2023-08-21T10:50:07;47.38;36.61;71.15;;
72028;Laerm;59781;52.090;5.030;2023-08-21T10:52:42;44.57;37.03;68.12;;
72028;Laerm;59781;52.090;5.030;2023-08-21T10:55:12;43.29;36.96;67.52;;
72028;Laerm;59781;52.090;5.030;2023-08-21T10:57:39;46.12;36.39;72.10;;
72028;Laerm;59781;52.090;5.030;2023-08-21T11:00:12;39.08;35.64;45.06;;
72028;Laerm;59781;52.090;5.030;2023-08-21T11:02:42;44.08;36.42;61.10;;
72028;Laerm;59781;52.090;5.030;2023-08-21T11:05:10;47.15;36.45;66.79;;
72028;Laerm;59781;52.090;5.030;2023-08-21T11:07:44;39.25;36.06;55.02;;
72028;Laerm;59781;52.090;5.030;2023-08-21T11:10:21;41.86;36.56;51.09;;
72028;Laerm;59781;52.090;5.030;2023-08-21T11:12:53;40.94;37.20;48.84;;
72028;Laerm;59781;52.090;5.030;2023-08-21T11:15:21;40.92;36.86;51.88;;
72028;Laerm;59781;52.090;5.030;2023-08-21T11:17:58;42.26;36.89;53.67;;
72028;Laerm;59781;52.090;5.030;2023-08-21T11:20:33;41.27;36.46;54.36;;
72028;Laerm;59781;52.090;5.030;2023-08-21T11:23:05;43.68;36.76;64.01;;
72028;Laerm;59781;52.090;5.030;2023-08-21T11:25:39;43.72;36.45;67.69;;
72028;Laerm;59781;52.090;5.030;2023-08-21T11:28:05;43.54;36.05;58.55;;
72028;Laerm;59781;52.090;5.030;2023-08-21T11:30:32;42.78;35.98;61.49;;
72028;Laerm;59781;52.090;5.030;2023-08-21T11:33:13;45.49;36.10;70.59;;
72028;Laerm;59781;52.090;5.030;2023-08-21T11:35:40;42.60;36.85;59.53;;
72028;Laerm;59781;52.090;5.030;2023-08-21T11:38:14;44.45;37.98;62.80;;
72028;Laerm;59781;52.090;5.030;2023-08-21T11:40:40;41.20;36.21;65.38;;
72028;Laerm;59781;52.090;5.030;2023-08-21T11:43:06;41.77;37.78;58.03;;
72028;Laerm;59781;52.090;5.030;2023-08-21T11:45:33;41.43;36.30;63.51;;
72028;Laerm;59781;52.090;5.030;2023-08-21T11:47:58;41.34;37.21;56.84;;
72028;Laerm;59781;52.090;5.030;2023-08-21T11:50:25;44.98;37.33;72.87;;
72028;Laerm;59781;52.090;5.030;2023-08-21T11:52:52;41.69;37.11;55.01;;
72028;Laerm;59781;52.090;5.030;2023-08-21T11:55:18;52.11;38.02;72.99;;
72028;Laerm;59781;52.090;5.030;2023-08-21T11:57:52;41.15;36.10;53.30;;
72028;Laerm;59781;52.090;5.030;2023-08-21T12:00:27;40.77;37.14;49.05;;
72028;Laerm;59781;52.090;5.030;2023-08-21T12:02:58;41.57;38.05;51.53;;
72028;Laerm;59781;52.090;5.030;2023-08-21T12:05:27;39.89;36.19;47.05;;
72028;Laerm;59781;52.090;5.030;2023-08-21T12:07:54;39.59;36.13;47.92;;
72028;Laerm;59781;52.090;5.030;2023-08-21T12:10:28;43.33;36.63;54.09;;
72028;Laerm;59781;52.090;5.030;2023-08-21T12:12:55;44.04;36.97;59.29;;
72028;Laerm;59781;52.090;5.030;2023-08-21T12:15:21;39.59;36.27;45.49;;
72028;Laerm;59781;52.090;5.030;2023-08-21T12:17:47;40.44;36.85;51.87;;
72028;Laerm;59781;52.090;5.030;2023-08-21T12:20:13;47.68;36.64;62.90;;
72028;Laerm;59781;52.090;5.030;2023-08-21T12:22:40;40.24;36.25;50.20;;
72028;Laerm;59781;52.090;5.030;2023-08-21T12:25:08;42.51;37.17;55.74;;
72028;Laerm;59781;52.090;5.030;2023-08-21T12:27:35;39.94;36.71;47.34;;
72028;Laerm;59781;52.090;5.030;2023-08-21T12:30:00;40.08;36.52;49.53;;
72028;Laerm;59781;52.090;5.030;2023-08-21T12:32:26;41.49;36.82;49.83;;
72028;Laerm;59781;52.090;5.030;2023-08-21T12:34:52;40.85;36.96;46.76;;
72028;Laerm;59781;52.090;5.030;2023-08-21T12:37:18;39.91;36.18;49.60;;
72028;Laerm;59781;52.090;5.030;2023-08-21T12:39:44;41.54;37.44;49.58;;
72028;Laerm;59781;52.090;5.030;2023-08-21T12:42:10;40.50;36.79;58.81;;
72028;Laerm;59781;52.090;5.030;2023-08-21T12:44:35;40.30;36.35;50.20;;
72028;Laerm;59781;52.090;5.030;2023-08-21T12:47:01;40.71;37.36;45.21;;
72028;Laerm;59781;52.090;5.030;2023-08-21T12:49:27;41.00;36.11;48.64;;
72028;Laerm;59781;52.090;5.030;2023-08-21T12:51:52;41.89;36.67;53.87;;
72028;Laerm;59781;52.090;5.030;2023-08-21T12:54:19;41.15;37.33;67.37;;
72028;Laerm;59781;52.090;5.030;2023-08-21T12:56:44;40.06;35.40;47.31;;
72028;Laerm;59781;52.090;5.030;2023-08-21T12:59:10;40.37;36.86;55.60;;
72028;Laerm;59781;52.090;5.030;2023-08-21T13:01:35;49.35;37.05;65.58;;
72028;Laerm;59781;52.090;5.030;2023-08-21T13:04:03;40.54;36.00;54.20;;
72028;Laerm;59781;52.090;5.030;2023-08-21T13:06:28;40.30;36.45;61.18;;
72028;Laerm;59781;52.090;5.030;2023-08-21T13:08:54;39.85;36.21;52.31;;
72028;Laerm;59781;52.090;5.030;2023-08-21T13:11:20;39.55;36.42;46.77;;
72028;Laerm;59781;52.090;5.030;2023-08-21T13:13:46;40.84;36.11;54.71;;
72028;Laerm;59781;52.090;5.030;2023-08-21T13:16:12;39.85;36.36;56.43;;
72028;Laerm;59781;52.090;5.030;2023-08-21T13:18:38;39.37;35.72;44.92;;
72028;Laerm;59781;52.090;5.030;2023-08-21T13:21:03;44.58;36.31;67.39;;
72028;Laerm;59781;52.090;5.030;2023-08-21T13:23:29;58.48;36.53;80.17;;
72028;Laerm;59781;52.090;5.030;2023-08-21T13:25:57;49.00;36.62;72.35;;
72028;Laerm;59781;52.090;5.030;2023-08-21T13:28:24;40.64;36.56;52.75;;
72028;Laerm;59781;52.090;5.030;2023-08-21T13:30:49;40.68;36.02;58.12;;
72028;Laerm;59781;52.090;5.030;2023-08-21T13:33:15;41.99;35.96;53.38;;
72028;Laerm;59781;52.090;5.030;2023-08-21T13:35:46;43.72;36.53;53.89;;
72028;Laerm;59781;52.090;5.030;2023-08-21T13:38:13;45.86;36.66;61.34;;
72028;Laerm;59781;52.090;5.030;2023-08-21T13:40:40;40.90;36.74;60.54;;
72028;Laerm;59781;52.090;5.030;2023-08-21T13:43:08;46.05;35.81;67.18;;
72028;Laerm;59781;52.090;5.030;2023-08-21T13:45:36;40.85;36.25;57.92;;
72028;Laerm;59781;52.090;5.030;2023-08-21T13:48:01;41.43;37.37;65.51;;